sensor_id;sensor_type;location;lat;lon;timestamp;pressure;altitude;pressure_sealevel;temperature;humidity
18652;BME280;9455;54.302;10.124;2023-12-20T00:01:06;100715.72;;;5.52;100.00
18652;BME280;9455;54.302;10.124;2023-12-20T00:03:33;100723.13;;;5.47;100.00
18652;BME280;9455;54.302;10.124;2023-12-20T00:05:59;100717.94;;;5.46;100.00
18652;BME280;9455;54.302;10.124;2023-12-20T00:08:26;100712.06;;;5.55;100.00
18652;BME280;9455;54.302;10.124;2023-12-20T00:10:52;100707.59;;;5.55;100.00
18652;BME280;9455;54.302;10.124;2023-12-20T00:13:19;100709.50;;;5.53;100.00
18652;BME280;9455;54.302;10.124;2023-12-20T00:15:47;100708.75;;;5.51;100.00
18652;BME280;9455;54.302;10.124;2023-12-20T00:18:14;100708.72;;;5.39;100.00
18652;BME280;9455;54.302;10.124;2023-12-20T00:20:40;100701.22;;;5.45;100.00
18652;BME280;9455;54.302;10.124;2023-12-20T00:23:07;100695.22;;;5.43;100.00
18652;BME280;9455;54.302;10.124;2023-12-20T00:25:34;100699.97;;;5.51;100.00
18652;BME280;9455;54.302;10.124;2023-12-20T00:28:00;100688.34;;;5.53;100.00
18652;BME280;9455;54.302;10.124;2023-12-20T00:30:27;100687.91;;;5.59;100.00
18652;BME280;9455;54.302;10.124;2023-12-20T00:32:55;100679.97;;;5.59;100.00
18652;BME280;9455;54.302;10.124;2023-12-20T00:35:22;100686.13;;;5.60;100.00
18652;BME280;9455;54.302;10.124;2023-12-20T00:37:48;100686.88;;;5.62;100.00
18652;BME280;9455;54.302;10.124;2023-12-20T00:40:15;100685.94;;;5.75;100.00
18652;BME280;9455;54.302;10.124;2023-12-20T00:42:42;100686.69;;;5.78;100.00
18652;BME280;9455;54.302;10.124;2023-12-20T00:45:09;100680.03;;;5.72;100.00
18652;BME280;9455;54.302;10.124;2023-12-20T00:47:35;100673.38;;;5.79;100.00
18652;BME280;9455;54.302;10.124;2023-12-20T00:50:04;100677.34;;;5.59;100.00
18652;BME280;9455;54.302;10.124;2023-12-20T00:52:31;100683.59;;;5.58;100.00
18652;BME280;9455;54.302;10.124;2023-12-20T00:54:57;100667.41;;;5.50;100.00
18652;BME280;9455;54.302;10.124;2023-12-20T00:57:24;100666.75;;;5.47;100.00
18652;BME280;9455;54.302;10.124;2023-12-20T00:59:51;100672.56;;;5.39;100.00
18652;BME280;9455;54.302;10.124;2023-12-20T01:02:17;100681.09;;;5.30;100.00
18652;BME280;9455;54.302;10.124;2023-12-20T01:04:44;100674.34;;;5.26;100.00
18652;BME280;9455;54.302;10.124;2023-12-20T01:07:12;100673.38;;;5.27;100.00
18652;BME280;9455;54.302;10.124;2023-12-20T01:09:39;100670.00;;;5.25;100.00
18652;BME280;9455;54.302;10.124;2023-12-20T01:12:05;100666.72;;;5.34;100.00
18652;BME280;9455;54.302;10.124;2023-12-20T01:14:32;100669.03;;;5.26;100.00
18652;BME280;9455;54.302;10.124;2023-12-20T01:16:59;100662.69;;;5.29;100.00
18652;BME280;9455;54.302;10.124;2023-12-20T01:19:26;100655.50;;;5.18;100.00
18652;BME280;9455;54.302;10.124;2023-12-20T01:21:54;100647.56;;;5.18;100.00
18652;BME280;9455;54.302;10.124;2023-12-20T01:24:22;100650.03;;;5.34;100.00
18652;BME280;9455;54.302;10.124;2023-12-20T01:26:49;100652.13;;;5.29;100.00
18652;BME280;9455;54.302;10.124;2023-12-20T01:29:16;100651.91;;;5.32;100.00
18652;BME280;9455;54.302;10.124;2023-12-20T01:31:42;100645.28;;;5.39;100.00
18652;BME280;9455;54.302;10.124;2023-12-20T01:34:09;100657.03;;;5.47;100.00
18652;BME280;9455;54.302;10.124;2023-12-20T01:36:35;100652.34;;;5.51;100.00
18652;BME280;9455;54.302;10.124;2023-12-20T01:39:02;100647.72;;;5.54;100.00
18652;BME280;9455;54.302;10.124;2023-12-20T01:41:30;100651.13;;;5.56;100.00
18652;BME280;9455;54.302;10.124;2023-12-20T01:43:57;100636.09;;;5.69;100.00
18652;BME280;9455;54.302;10.124;2023-12-20T01:46:24;100629.13;;;5.68;100.00
18652;BME280;9455;54.302;10.124;2023-12-20T01:48:51;100624.22;;;5.75;100.00
18652;BME280;9455;54.302;10.124;2023-12-20T01:51:18;100619.41;;;5.82;100.00
18652;BME280;9455;54.302;10.124;2023-12-20T01:53:46;100616.84;;;5.80;100.00
18652;BME280;9455;54.302;10.124;2023-12-20T01:56:13;100611.47;;;5.82;100.00
18652;BME280;9455;54.302;10.124;2023-12-20T01:58:44;100616.47;;;5.86;100.00
18652;BME280;9455;54.302;10.124;2023-12-20T02:01:11;100607.31;;;5.78;100.00
18652;BME280;9455;54.302;10.124;2023-12-20T02:03:39;100603.34;;;5.85;100.00
18652;BME280;9455;54.302;10.124;2023-12-20T02:06:07;100600.47;;;5.88;100.00
18652;BME280;9455;54.302;10.124;2023-12-20T02:08:34;100601.63;;;5.84;100.00
18652;BME280;9455;54.302;10.124;2023-12-20T02:11:00;100586.81;;;5.81;100.00
18652;BME280;9455;54.302;10.124;2023-12-20T02:13:27;100588.38;;;5.84;100.00
18652;BME280;9455;54.302;10.124;2023-12-20T02:15:56;100591.47;;;5.90;100.00
18652;BME280;9455;54.302;10.124;2023-12-20T02:18:22;100580.88;;;5.90;100.00
18652;BME280;9455;54.302;10.124;2023-12-20T02:20:49;100585.53;;;5.87;100.00
18652;BME280;9455;54.302;10.124;2023-12-20T02:23:17;100584.72;;;5.86;100.00
18652;BME280;9455;54.302;10.124;2023-12-20T02:25:44;100586.69;;;5.95;100.00
18652;BME280;9455;54.302;10.124;2023-12-20T02:28:10;100575.56;;;6.03;100.00
18652;BME280;9455;54.302;10.124;2023-12-20T02:30:37;100570.66;;;6.09;100.00
18652;BME280;9455;54.302;10.124;2023-12-20T02:33:07;100568.59;;;6.02;100.00
18652;BME280;9455;54.302;10.124;2023-12-20T02:35:34;100561.38;;;6.04;100.00
18652;BME280;9455;54.302;10.124;2023-12-20T02:38:01;100557.09;;;6.14;100.00
18652;BME280;9455;54.302;10.124;2023-12-20T02:40:29;100553.72;;;6.12;100.00
18652;BME280;9455;54.302;10.124;2023-12-20T02:42:55;100547.69;;;6.10;100.00
18652;BME280;9455;54.302;10.124;2023-12-20T02:45:22;100548.19;;;6.15;100.00
18652;BME280;9455;54.302;10.124;2023-12-20T02:47:49;100545.56;;;6.15;100.00
18652;BME280;9455;54.302;10.124;2023-12-20T02:50:14;100540.78;;;6.20;100.00
18652;BME280;9455;54.302;10.124;2023-12-20T02:52:44;100537.97;;;6.10;100.00
18652;BME280;9455;54.302;10.124;2023-12-20T02:55:11;100534.25;;;6.13;100.00
18652;BME280;9455;54.302;10.124;2023-12-20T02:57:39;100522.47;;;6.17;100.00
18652;BME280;9455;54.302;10.124;2023-12-20T03:00:07;100525.97;;;6.17;100.00
18652;BME280;9455;54.302;10.124;2023-12-20T03:02:34;100512.84;;;6.16;100.00
18652;BME280;9455;54.302;10.124;2023-12-20T03:05:01;100511.63;;;6.09;100.00
18652;BME280;9455;54.302;10.124;2023-12-20T03:07:28;100506.44;;;6.07;100.00
18652;BME280;9455;54.302;10.124;2023-12-20T03:09:54;100496.97;;;6.16;100.00
18652;BME280;9455;54.302;10.124;2023-12-20T03:12:21;100488.72;;;6.08;100.00
18652;BME280;9455;54.302;10.124;2023-12-20T03:14:49;100497.41;;;6.10;100.00
18652;BME280;9455;54.302;10.124;2023-12-20T03:17:16;100496.56;;;6.09;100.00
18652;BME280;9455;54.302;10.124;2023-12-20T03:19:42;100491.91;;;6.13;100.00
18652;BME280;9455;54.302;10.124;2023-12-20T03:22:09;100481.38;;;6.24;100.00
18652;BME280;9455;54.302;10.124;2023-12-20T03:24:35;100470.25;;;6.19;100.00
18652;BME280;9455;54.302;10.124;2023-12-20T03:27:02;100474.50;;;6.21;100.00
18652;BME280;9455;54.302;10.124;2023-12-20T03:29:29;100470.03;;;6.22;100.00
18652;BME280;9455;54.302;10.124;2023-12-20T03:31:57;100474.66;;;6.31;100.00
18652;BME280;9455;54.302;10.124;2023-12-20T03:34:23;100472.66;;;6.22;100.00
18652;BME280;9455;54.302;10.124;2023-12-20T03:36:50;100472.56;;;6.23;100.00
18652;BME280;9455;54.302;10.124;2023-12-20T03:39:17;100474.59;;;6.20;100.00
18652;BME280;9455;54.302;10.124;2023-12-20T03:41:43;100477.47;;;6.17;100.00
18652;BME280;9455;54.302;10.124;2023-12-20T03:44:10;100468.06;;;6.13;100.00
18652;BME280;9455;54.302;10.124;2023-12-20T03:46:36;100468.56;;;6.18;100.00
18652;BME280;9455;54.302;10.124;2023-12-20T03:49:04;100456.28;;;6.17;100.00
18652;BME280;9455;54.302;10.124;2023-12-20T03:51:31;100453.66;;;6.17;100.00
18652;BME280;9455;54.302;10.124;2023-12-20T03:53:58;100449.75;;;6.10;100.00
18652;BME280;9455;54.302;10.124;2023-12-20T03:56:24;100439.91;;;6.12;100.00
18652;BME280;9455;54.302;10.124;2023-12-20T03:58:51;100439.66;;;6.15;100.00
18652;BME280;9455;54.302;10.124;2023-12-20T04:01:17;100429.38;;;6.23;100.00
18652;BME280;9455;54.302;10.124;2023-12-20T04:03:44;100431.13;;;6.11;100.00
18652;BME280;9455;54.302;10.124;2023-12-20T04:06:16;100432.38;;;6.18;100.00
18652;BME280;9455;54.302;10.124;2023-12-20T04:08:43;100438.63;;;6.17;100.00
18652;BME280;9455;54.302;10.124;2023-12-20T04:11:09;100436.81;;;6.18;100.00
18652;BME280;9455;54.302;10.124;2023-12-20T04:13:36;100428.84;;;6.18;100.00
18652;BME280;9455;54.302;10.124;2023-12-20T04:16:03;100428.31;;;6.25;100.00
18652;BME280;9455;54.302;10.124;2023-12-20T04:18:30;100433.47;;;6.27;100.00
18652;BME280;9455;54.302;10.124;2023-12-20T04:20:57;100423.91;;;6.13;100.00
18652;BME280;9455;54.302;10.124;2023-12-20T04:23:25;100432.47;;;6.17;100.00
18652;BME280;9455;54.302;10.124;2023-12-20T04:25:51;100426.84;;;6.21;100.00
18652;BME280;9455;54.302;10.124;2023-12-20T04:28:18;100417.56;;;6.16;100.00
18652;BME280;9455;54.302;10.124;2023-12-20T04:30:44;100426.00;;;6.21;100.00
18652;BME280;9455;54.302;10.124;2023-12-20T04:33:11;100408.38;;;6.09;100.00
18652;BME280;9455;54.302;10.124;2023-12-20T04:35:38;100412.31;;;6.03;100.00
18652;BME280;9455;54.302;10.124;2023-12-20T04:38:06;100419.78;;;6.09;100.00
18652;BME280;9455;54.302;10.124;2023-12-20T04:40:34;100408.75;;;6.15;100.00
18652;BME280;9455;54.302;10.124;2023-12-20T04:43:01;100410.28;;;6.07;100.00
18652;BME280;9455;54.302;10.124;2023-12-20T04:45:27;100404.50;;;6.02;100.00
18652;BME280;9455;54.302;10.124;2023-12-20T04:47:55;100404.03;;;6.08;100.00
18652;BME280;9455;54.302;10.124;2023-12-20T04:50:21;100406.41;;;6.00;100.00
18652;BME280;9455;54.302;10.124;2023-12-20T04:52:48;100400.16;;;6.01;100.00
18652;BME280;9455;54.302;10.124;2023-12-20T04:55:15;100394.28;;;6.08;100.00
18652;BME280;9455;54.302;10.124;2023-12-20T04:57:43;100400.88;;;6.03;100.00
18652;BME280;9455;54.302;10.124;2023-12-20T05:00:10;100397.06;;;6.07;100.00
18652;BME280;9455;54.302;10.124;2023-12-20T05:02:39;100393.97;;;6.13;100.00
18652;BME280;9455;54.302;10.124;2023-12-20T05:05:06;100391.31;;;6.13;100.00
18652;BME280;9455;54.302;10.124;2023-12-20T05:07:33;100382.88;;;6.19;100.00
18652;BME280;9455;54.302;10.124;2023-12-20T05:10:00;100374.28;;;6.28;100.00
18652;BME280;9455;54.302;10.124;2023-12-20T05:12:26;100378.09;;;6.24;100.00
18652;BME280;9455;54.302;10.124;2023-12-20T05:14:54;100376.44;;;6.23;100.00
18652;BME280;9455;54.302;10.124;2023-12-20T05:17:21;100386.16;;;6.22;100.00
18652;BME280;9455;54.302;10.124;2023-12-20T05:19:47;100381.34;;;6.27;100.00
18652;BME280;9455;54.302;10.124;2023-12-20T05:22:14;100379.06;;;6.23;100.00
18652;BME280;9455;54.302;10.124;2023-12-20T05:24:40;100376.91;;;6.28;100.00
18652;BME280;9455;54.302;10.124;2023-12-20T05:27:07;100375.47;;;6.24;100.00
18652;BME280;9455;54.302;10.124;2023-12-20T05:29:33;100372.06;;;6.22;100.00
18652;BME280;9455;54.302;10.124;2023-12-20T05:32:01;100372.31;;;6.19;100.00
18652;BME280;9455;54.302;10.124;2023-12-20T05:34:29;100387.97;;;6.22;100.00
18652;BME280;9455;54.302;10.124;2023-12-20T05:36:57;100366.56;;;6.25;100.00
18652;BME280;9455;54.302;10.124;2023-12-20T05:39:23;100360.75;;;6.09;100.00
18652;BME280;9455;54.302;10.124;2023-12-20T05:41:51;100353.97;;;6.05;100.00
18652;BME280;9455;54.302;10.124;2023-12-20T05:44:17;100349.41;;;6.07;100.00
18652;BME280;9455;54.302;10.124;2023-12-20T05:46:44;100347.44;;;5.98;100.00
18652;BME280;9455;54.302;10.124;2023-12-20T05:49:12;100341.22;;;5.99;100.00
18652;BME280;9455;54.302;10.124;2023-12-20T05:51:39;100334.69;;;5.92;100.00
18652;BME280;9455;54.302;10.124;2023-12-20T05:54:05;100336.16;;;5.96;100.00
18652;BME280;9455;54.302;10.124;2023-12-20T05:56:32;100330.41;;;6.02;100.00
18652;BME280;9455;54.302;10.124;2023-12-20T05:58:59;100331.22;;;6.02;100.00
18652;BME280;9455;54.302;10.124;2023-12-20T06:01:25;100336.75;;;5.99;100.00
18652;BME280;9455;54.302;10.124;2023-12-20T06:03:52;100332.06;;;6.03;100.00
18652;BME280;9455;54.302;10.124;2023-12-20T06:06:20;100332.06;;;6.03;100.00
18652;BME280;9455;54.302;10.124;2023-12-20T06:08:46;100348.09;;;6.12;100.00
18652;BME280;9455;54.302;10.124;2023-12-20T06:11:13;100327.91;;;6.11;100.00
18652;BME280;9455;54.302;10.124;2023-12-20T06:13:40;100335.22;;;6.08;100.00
18652;BME280;9455;54.302;10.124;2023-12-20T06:16:07;100318.28;;;6.10;100.00
18652;BME280;9455;54.302;10.124;2023-12-20T06:18:33;100312.84;;;6.12;100.00
18652;BME280;9455;54.302;10.124;2023-12-20T06:21:01;100307.53;;;6.12;100.00
18652;BME280;9455;54.302;10.124;2023-12-20T06:23:29;100306.84;;;6.10;100.00
18652;BME280;9455;54.302;10.124;2023-12-20T06:25:56;100300.22;;;6.15;100.00
18652;BME280;9455;54.302;10.124;2023-12-20T06:28:22;100301.09;;;6.16;100.00
18652;BME280;9455;54.302;10.124;2023-12-20T06:30:49;100287.25;;;6.23;100.00
18652;BME280;9455;54.302;10.124;2023-12-20T06:33:17;100284.03;;;6.31;100.00
18652;BME280;9455;54.302;10.124;2023-12-20T06:35:46;100273.44;;;6.31;100.00
18652;BME280;9455;54.302;10.124;2023-12-20T06:38:12;100275.97;;;6.32;100.00
18652;BME280;9455;54.302;10.124;2023-12-20T06:40:40;100274.66;;;6.38;100.00
18652;BME280;9455;54.302;10.124;2023-12-20T06:43:08;100278.03;;;6.40;100.00
18652;BME280;9455;54.302;10.124;2023-12-20T06:45:34;100278.97;;;6.28;100.00
18652;BME280;9455;54.302;10.124;2023-12-20T06:48:01;100293.53;;;6.33;100.00
18652;BME280;9455;54.302;10.124;2023-12-20T06:50:27;100298.13;;;6.31;100.00
18652;BME280;9455;54.302;10.124;2023-12-20T06:52:54;100305.66;;;6.25;100.00
18652;BME280;9455;54.302;10.124;2023-12-20T06:55:20;100304.97;;;6.34;100.00
18652;BME280;9455;54.302;10.124;2023-12-20T06:57:48;100299.16;;;6.29;100.00
18652;BME280;9455;54.302;10.124;2023-12-20T07:00:16;100278.97;;;6.28;100.00
18652;BME280;9455;54.302;10.124;2023-12-20T07:02:43;100284.03;;;6.31;100.00
18652;BME280;9455;54.302;10.124;2023-12-20T07:05:10;100271.53;;;6.33;100.00
18652;BME280;9455;54.302;10.124;2023-12-20T07:07:36;100271.25;;;6.36;100.00
18652;BME280;9455;54.302;10.124;2023-12-20T07:10:04;100271.00;;;6.28;100.00
18652;BME280;9455;54.302;10.124;2023-12-20T07:12:30;100270.53;;;6.23;100.00
18652;BME280;9455;54.302;10.124;2023-12-20T07:14:58;100246.09;;;6.19;100.00
18652;BME280;9455;54.302;10.124;2023-12-20T07:17:25;100268.34;;;6.17;100.00
18652;BME280;9455;54.302;10.124;2023-12-20T07:19:51;100254.25;;;6.16;100.00
18652;BME280;9455;54.302;10.124;2023-12-20T07:22:18;100249.19;;;6.13;100.00
18652;BME280;9455;54.302;10.124;2023-12-20T07:24:44;100252.13;;;6.10;100.00
18652;BME280;9455;54.302;10.124;2023-12-20T07:27:11;100246.44;;;6.04;100.00
18652;BME280;9455;54.302;10.124;2023-12-20T07:29:37;100248.25;;;6.03;100.00
18652;BME280;9455;54.302;10.124;2023-12-20T07:32:06;100239.94;;;6.08;100.00
18652;BME280;9455;54.302;10.124;2023-12-20T07:34:33;100251.97;;;6.12;100.00
18652;BME280;9455;54.302;10.124;2023-12-20T07:37:00;100246.94;;;6.20;100.00
18652;BME280;9455;54.302;10.124;2023-12-20T07:39:26;100238.13;;;6.08;100.00
18652;BME280;9455;54.302;10.124;2023-12-20T07:41:53;100235.03;;;6.14;100.00
18652;BME280;9455;54.302;10.124;2023-12-20T07:44:19;100232.00;;;6.19;100.00
18652;BME280;9455;54.302;10.124;2023-12-20T07:46:46;100234.91;;;6.16;100.00
18652;BME280;9455;54.302;10.124;2023-12-20T07:49:15;100215.28;;;6.18;100.00
18652;BME280;9455;54.302;10.124;2023-12-20T07:51:41;100222.25;;;6.19;100.00
18652;BME280;9455;54.302;10.124;2023-12-20T07:54:08;100216.97;;;6.19;100.00
18652;BME280;9455;54.302;10.124;2023-12-20T07:56:35;100208.91;;;6.21;100.00
18652;BME280;9455;54.302;10.124;2023-12-20T07:59:01;100200.00;;;6.22;100.00
18652;BME280;9455;54.302;10.124;2023-12-20T08:01:28;100196.25;;;6.13;100.00
18652;BME280;9455;54.302;10.124;2023-12-20T08:03:54;100195.44;;;6.13;100.00
18652;BME280;9455;54.302;10.124;2023-12-20T08:06:23;100219.72;;;6.18;100.00
18652;BME280;9455;54.302;10.124;2023-12-20T08:08:50;100220.19;;;6.12;100.00
18652;BME280;9455;54.302;10.124;2023-12-20T08:11:16;100203.84;;;6.18;100.00
18652;BME280;9455;54.302;10.124;2023-12-20T08:13:43;100204.81;;;6.17;100.00
18652;BME280;9455;54.302;10.124;2023-12-20T08:16:10;100193.16;;;6.19;100.00
18652;BME280;9455;54.302;10.124;2023-12-20T08:18:38;100172.81;;;6.20;100.00
18652;BME280;9455;54.302;10.124;2023-12-20T08:21:05;100176.28;;;6.20;100.00
18652;BME280;9455;54.302;10.124;2023-12-20T08:23:34;100166.44;;;6.11;100.00
18652;BME280;9455;54.302;10.124;2023-12-20T08:26:03;100159.59;;;6.20;100.00
18652;BME280;9455;54.302;10.124;2023-12-20T08:28:30;100153.78;;;6.15;100.00
18652;BME280;9455;54.302;10.124;2023-12-20T08:30:57;100189.75;;;6.06;100.00
18652;BME280;9455;54.302;10.124;2023-12-20T08:33:24;100206.72;;;6.04;100.00
18652;BME280;9455;54.302;10.124;2023-12-20T08:35:50;100215.16;;;6.09;100.00
18652;BME280;9455;54.302;10.124;2023-12-20T08:38:17;100221.06;;;6.12;100.00
18652;BME280;9455;54.302;10.124;2023-12-20T08:40:45;100240.53;;;6.00;100.00
18652;BME280;9455;54.302;10.124;2023-12-20T08:43:11;100210.72;;;5.74;100.00
18652;BME280;9455;54.302;10.124;2023-12-20T08:45:38;100191.47;;;5.61;100.00
18652;BME280;9455;54.302;10.124;2023-12-20T08:48:06;100177.28;;;5.73;100.00
18652;BME280;9455;54.302;10.124;2023-12-20T08:50:32;100159.97;;;5.69;100.00
18652;BME280;9455;54.302;10.124;2023-12-20T08:53:00;100176.56;;;5.60;100.00
18652;BME280;9455;54.302;10.124;2023-12-20T08:55:26;100152.25;;;5.55;100.00
18652;BME280;9455;54.302;10.124;2023-12-20T08:57:55;100171.84;;;5.53;100.00
18652;BME280;9455;54.302;10.124;2023-12-20T09:00:22;100180.41;;;5.56;100.00
18652;BME280;9455;54.302;10.124;2023-12-20T09:02:49;100182.31;;;5.54;100.00
18652;BME280;9455;54.302;10.124;2023-12-20T09:05:16;100192.53;;;5.59;100.00
18652;BME280;9455;54.302;10.124;2023-12-20T09:07:42;100190.69;;;5.48;100.00
18652;BME280;9455;54.302;10.124;2023-12-20T09:10:09;100196.81;;;5.49;100.00
18652;BME280;9455;54.302;10.124;2023-12-20T09:12:36;100208.03;;;5.29;100.00
18652;BME280;9455;54.302;10.124;2023-12-20T09:15:06;100198.53;;;5.26;100.00
18652;BME280;9455;54.302;10.124;2023-12-20T09:17:33;100202.16;;;5.25;100.00
18652;BME280;9455;54.302;10.124;2023-12-20T09:20:00;100206.47;;;5.26;100.00
18652;BME280;9455;54.302;10.124;2023-12-20T09:22:27;100211.88;;;5.25;100.00
18652;BME280;9455;54.302;10.124;2023-12-20T09:24:54;100227.56;;;5.15;100.00
18652;BME280;9455;54.302;10.124;2023-12-20T09:27:20;100235.28;;;5.18;100.00
18652;BME280;9455;54.302;10.124;2023-12-20T09:29:47;100238.53;;;5.22;100.00
18652;BME280;9455;54.302;10.124;2023-12-20T09:32:15;100238.41;;;5.23;100.00
18652;BME280;9455;54.302;10.124;2023-12-20T09:34:41;100237.44;;;5.24;100.00
18652;BME280;9455;54.302;10.124;2023-12-20T09:37:08;100237.00;;;5.30;100.00
18652;BME280;9455;54.302;10.124;2023-12-20T09:39:35;100245.16;;;5.27;100.00
18652;BME280;9455;54.302;10.124;2023-12-20T09:42:02;100250.44;;;5.27;100.00
18652;BME280;9455;54.302;10.124;2023-12-20T09:44:30;100251.72;;;5.22;100.00
18652;BME280;9455;54.302;10.124;2023-12-20T09:46:59;100259.50;;;5.12;100.00
18652;BME280;9455;54.302;10.124;2023-12-20T09:49:29;100264.41;;;5.29;100.00
18652;BME280;9455;54.302;10.124;2023-12-20T09:51:56;100253.78;;;5.18;100.00
18652;BME280;9455;54.302;10.124;2023-12-20T09:54:23;100257.66;;;5.25;100.00
18652;BME280;9455;54.302;10.124;2023-12-20T09:56:50;100257.88;;;5.22;100.00
18652;BME280;9455;54.302;10.124;2023-12-20T09:59:16;100260.78;;;5.30;100.00
18652;BME280;9455;54.302;10.124;2023-12-20T10:01:43;100249.03;;;5.34;100.00
18652;BME280;9455;54.302;10.124;2023-12-20T10:04:11;100252.59;;;5.22;100.00
18652;BME280;9455;54.302;10.124;2023-12-20T10:06:41;100246.06;;;5.15;100.00
18652;BME280;9455;54.302;10.124;2023-12-20T10:09:08;100249.13;;;5.33;100.00
18652;BME280;9455;54.302;10.124;2023-12-20T10:11:35;100250.00;;;5.33;100.00
18652;BME280;9455;54.302;10.124;2023-12-20T10:14:02;100246.69;;;5.42;100.00
18652;BME280;9455;54.302;10.124;2023-12-20T10:16:30;100257.31;;;5.53;100.00
18652;BME280;9455;54.302;10.124;2023-12-20T10:18:58;100245.19;;;5.62;100.00
18652;BME280;9455;54.302;10.124;2023-12-20T10:21:25;100242.34;;;5.65;100.00
18652;BME280;9455;54.302;10.124;2023-12-20T10:23:54;100247.16;;;5.95;100.00
18652;BME280;9455;54.302;10.124;2023-12-20T10:26:21;100243.88;;;6.02;100.00
18652;BME280;9455;54.302;10.124;2023-12-20T10:28:50;100255.47;;;5.78;100.00
18652;BME280;9455;54.302;10.124;2023-12-20T10:31:28;100247.63;;;5.65;100.00
18652;BME280;9455;54.302;10.124;2023-12-20T10:33:56;100243.16;;;5.65;100.00
18652;BME280;9455;54.302;10.124;2023-12-20T10:36:23;100235.63;;;5.48;100.00
18652;BME280;9455;54.302;10.124;2023-12-20T10:38:54;100242.09;;;5.44;100.00
18652;BME280;9455;54.302;10.124;2023-12-20T10:41:25;100227.88;;;5.34;100.00
18652;BME280;9455;54.302;10.124;2023-12-20T10:43:53;100227.91;;;5.45;100.00
18652;BME280;9455;54.302;10.124;2023-12-20T10:46:21;100235.31;;;5.29;100.00
18652;BME280;9455;54.302;10.124;2023-12-20T10:48:50;100234.34;;;5.30;100.00
18652;BME280;9455;54.302;10.124;2023-12-20T10:51:18;100219.47;;;5.29;100.00
18652;BME280;9455;54.302;10.124;2023-12-20T10:53:47;100209.66;;;5.42;100.00
18652;BME280;9455;54.302;10.124;2023-12-20T10:56:17;100206.56;;;5.48;100.00
18652;BME280;9455;54.302;10.124;2023-12-20T10:58:45;100203.69;;;5.51;100.00
18652;BME280;9455;54.302;10.124;2023-12-20T11:01:13;100217.16;;;5.59;100.00
18652;BME280;9455;54.302;10.124;2023-12-20T11:03:43;100206.22;;;5.53;100.00
18652;BME280;9455;54.302;10.124;2023-12-20T11:06:16;100207.53;;;5.58;100.00
18652;BME280;9455;54.302;10.124;2023-12-20T11:08:51;100194.75;;;5.41;100.00
18652;BME280;9455;54.302;10.124;2023-12-20T11:11:25;100204.31;;;5.31;100.00
18652;BME280;9455;54.302;10.124;2023-12-20T11:13:56;100208.88;;;5.29;100.00
18652;BME280;9455;54.302;10.124;2023-12-20T11:16:24;100208.66;;;5.32;100.00
18652;BME280;9455;54.302;10.124;2023-12-20T11:18:51;100204.84;;;5.36;100.00
18652;BME280;9455;54.302;10.124;2023-12-20T11:21:17;100202.81;;;5.51;100.00
18652;BME280;9455;54.302;10.124;2023-12-20T11:23:43;100199.75;;;5.68;100.00
18652;BME280;9455;54.302;10.124;2023-12-20T11:26:10;100198.22;;;5.76;100.00
18652;BME280;9455;54.302;10.124;2023-12-20T11:28:38;100194.41;;;5.81;100.00
18652;BME280;9455;54.302;10.124;2023-12-20T11:31:05;100200.09;;;5.87;100.00
18652;BME280;9455;54.302;10.124;2023-12-20T11:33:35;100206.97;;;6.01;100.00
18652;BME280;9455;54.302;10.124;2023-12-20T11:36:03;100205.28;;;6.11;100.00
18652;BME280;9455;54.302;10.124;2023-12-20T11:38:36;100214.19;;;5.99;100.00
18652;BME280;9455;54.302;10.124;2023-12-20T11:41:05;100218.50;;;5.89;100.00
18652;BME280;9455;54.302;10.124;2023-12-20T11:43:34;100219.16;;;5.79;100.00
18652;BME280;9455;54.302;10.124;2023-12-20T11:46:06;100214.72;;;5.80;100.00
18652;BME280;9455;54.302;10.124;2023-12-20T11:48:35;100212.00;;;5.82;100.00
18652;BME280;9455;54.302;10.124;2023-12-20T11:51:02;100198.66;;;5.83;100.00
18652;BME280;9455;54.302;10.124;2023-12-20T11:53:29;100204.41;;;5.88;100.00
18652;BME280;9455;54.302;10.124;2023-12-20T11:55:56;100210.69;;;5.87;100.00
18652;BME280;9455;54.302;10.124;2023-12-20T11:58:23;100207.69;;;5.92;100.00
18652;BME280;9455;54.302;10.124;2023-12-20T12:00:49;100200.94;;;5.88;100.00
18652;BME280;9455;54.302;10.124;2023-12-20T12:03:17;100194.69;;;5.89;100.00
18652;BME280;9455;54.302;10.124;2023-12-20T12:05:47;100204.41;;;5.88;100.00
18652;BME280;9455;54.302;10.124;2023-12-20T12:08:13;100214.03;;;5.89;100.00
18652;BME280;9455;54.302;10.124;2023-12-20T12:10:40;100208.16;;;5.86;100.00
18652;BME280;9455;54.302;10.124;2023-12-20T12:13:07;100221.84;;;5.91;100.00
18652;BME280;9455;54.302;10.124;2023-12-20T12:15:35;100211.31;;;6.02;100.00
18652;BME280;9455;54.302;10.124;2023-12-20T12:18:01;100209.63;;;6.12;100.00
18652;BME280;9455;54.302;10.124;2023-12-20T12:20:29;100206.16;;;6.22;100.00
18652;BME280;9455;54.302;10.124;2023-12-20T12:22:59;100208.91;;;6.32;100.00
18652;BME280;9455;54.302;10.124;2023-12-20T12:25:26;100213.97;;;6.46;100.00
18652;BME280;9455;54.302;10.124;2023-12-20T12:27:55;100188.44;;;6.56;100.00
18652;BME280;9455;54.302;10.124;2023-12-20T12:30:22;100198.66;;;6.71;100.00
18652;BME280;9455;54.302;10.124;2023-12-20T12:32:48;100230.22;;;6.74;100.00
18652;BME280;9455;54.302;10.124;2023-12-20T12:35:15;100218.53;;;6.11;100.00
18652;BME280;9455;54.302;10.124;2023-12-20T12:37:43;100219.59;;;5.86;100.00
18652;BME280;9455;54.302;10.124;2023-12-20T12:40:11;100211.78;;;6.07;100.00
18652;BME280;9455;54.302;10.124;2023-12-20T12:42:39;100218.38;;;5.66;100.00
18652;BME280;9455;54.302;10.124;2023-12-20T12:45:06;100219.00;;;5.70;100.00
18652;BME280;9455;54.302;10.124;2023-12-20T12:47:34;100226.72;;;5.73;100.00
18652;BME280;9455;54.302;10.124;2023-12-20T12:50:01;100218.78;;;5.73;100.00